Charco, Texas
Current Conditions -  °F | °C
As of 3:55 PM on Saturday 25 Oct 2014 (Local Time) from KBEA Reporting Station
Scattered Clouds Scattered Clouds  
Wind Chill: 31°   Ceiling: Unl
Heat Index: 31°   Visibility: 10mi
Dew Point: 13°   Wind: 3mph
Humidity: 33%   Direction: 120°ESE
Pressure: 30.08"   Gusts: NA
Location:  28.6563°N, 97.4287°W
Report Text: KBEA 252055Z AUTO 12003KT 10SM SCT065 31/13 A3008 RMK AO2 T03140132
Loading
Personal Weather Stations






























Interactive Weather Map
Tropical Storm Tracking
New forecast layout! Learn more

10-Day Weather Forecast

Advertisements
Track Severe Weather on mobile